Time;durP1;ratioP1;P1;durP2;ratioP2;P2;SDS_P1;SDS_P2;PMS_P1;PMS_P2;Temp;Humidity;BMP_temperature;BMP_pressure;BME280_temperature;BME280_humidity;BME280_pressure;Samples;Min_cycle;Max_cycle;Signal;HPM_P1;HPM_P2
2021/07/14 00:00:54;;;;;;;;;;;13.00;99.90;;;;;;4996384;28;20273;-93
2021/07/14 00:03:19;;;;;;;;;;;13.00;99.90;;;;;;4996382;28;19917;-93
2021/07/14 00:05:45;;;;;;;;;;;13.10;99.90;;;;;;4996486;28;20369;-93
2021/07/14 00:08:10;;;;;;;;;;;13.00;99.90;;;;;;4996341;28;19914;-92
2021/07/14 00:10:37;;;;;;;;;;;13.00;99.90;;;;;;4996202;28;19909;-92
2021/07/14 00:13:25;;;;;;;;;;;13.00;99.90;;;;;;4996295;28;19909;-93
2021/07/14 00:23:55;;;;;;;;;;;12.80;99.90;;;;;;5014161;28;19916;-92
2021/07/14 00:26:26;;;;;;;;;;;12.80;99.90;;;;;;4996393;28;20292;-93
2021/07/14 00:28:52;;;;;;;;;;;12.70;99.90;;;;;;4996348;28;20250;-92
2021/07/14 00:31:18;;;;;;;;;;;12.70;99.90;;;;;;4996142;28;19964;-93
2021/07/14 00:33:44;;;;;;;;;;;12.70;99.90;;;;;;4996167;28;19909;-93
2021/07/14 00:36:09;;;;;;;;;;;12.70;99.90;;;;;;4996179;28;19916;-94
2021/07/14 00:38:35;;;;;;;;;;;12.70;99.90;;;;;;4996080;28;20012;-93
2021/07/14 00:41:01;;;;;;;;;;;12.70;99.90;;;;;;4996028;28;19932;-93
2021/07/14 00:43:26;;;;;;;;;;;12.70;99.90;;;;;;4996155;28;20406;-92
2021/07/14 00:45:52;;;;;;;;;;;12.70;99.90;;;;;;4996283;28;19917;-92
2021/07/14 00:48:21;;;;;;;;;;;12.70;99.90;;;;;;4995771;28;20383;-93
2021/07/14 00:50:46;;;;;;;;;;;12.70;99.90;;;;;;4995864;28;19953;-93
2021/07/14 00:53:12;;;;;;;;;;;12.70;99.90;;;;;;4998295;28;19953;-93
2021/07/14 00:55:37;;;;;;;;;;;12.70;99.90;;;;;;4999679;28;20059;-93
2021/07/14 00:58:03;;;;;;;;;;;12.70;99.90;;;;;;4999532;28;19953;-92
2021/07/14 01:00:28;;;;;;;;;;;12.70;99.90;;;;;;4999907;28;20405;-92
2021/07/14 01:02:54;;;;;;;;;;;12.60;99.90;;;;;;4999501;28;19917;-92
2021/07/14 01:05:24;;;;;;;;;;;12.60;99.90;;;;;;4999538;28;19933;-93
2021/07/14 01:08:07;;;;;;;;;;;12.60;99.90;;;;;;4999530;28;19914;-93
2021/07/14 01:10:43;;;;;;;;;;;12.60;99.90;;;;;;4999559;28;20408;-92
2021/07/14 01:13:27;;;;;;;;;;;12.60;99.90;;;;;;4999261;28;19913;-93
2021/07/14 01:16:03;;;;;;;;;;;12.60;99.90;;;;;;4999184;28;19909;-92
2021/07/14 01:18:32;;;;;;;;;;;12.60;99.90;;;;;;4998946;28;20156;-92
2021/07/14 01:20:57;;;;;;;;;;;12.60;99.90;;;;;;4998938;28;19917;-92
2021/07/14 01:23:27;;;;;;;;;;;12.60;99.90;;;;;;4999046;28;19909;-91
2021/07/14 01:25:53;;;;;;;;;;;12.60;99.90;;;;;;4999037;28;20280;-91
2021/07/14 01:28:19;;;;;;;;;;;12.60;99.90;;;;;;4998810;28;19918;-92
2021/07/14 01:30:45;;;;;;;;;;;12.60;99.90;;;;;;4998957;28;20348;-92
2021/07/14 01:33:12;;;;;;;;;;;12.60;99.90;;;;;;4998696;28;19918;-92
2021/07/14 01:35:41;;;;;;;;;;;12.60;99.90;;;;;;4998724;28;19968;-92
2021/07/14 01:38:06;;;;;;;;;;;12.60;99.90;;;;;;4998746;28;19989;-92
2021/07/14 01:40:32;;;;;;;;;;;12.60;99.90;;;;;;4998755;28;19921;-92
2021/07/14 01:42:59;;;;;;;;;;;12.60;99.90;;;;;;4998807;28;19910;-92
2021/07/14 01:45:26;;;;;;;;;;;12.70;99.90;;;;;;4998575;28;19910;-92
2021/07/14 01:47:52;;;;;;;;;;;12.70;99.90;;;;;;4998394;28;19914;-92
2021/07/14 01:50:18;;;;;;;;;;;12.80;99.90;;;;;;4998543;28;19914;-91
2021/07/14 01:52:43;;;;;;;;;;;12.80;99.90;;;;;;4998611;28;19909;-92
2021/07/14 01:55:10;;;;;;;;;;;12.80;99.90;;;;;;4998547;28;20439;-92
2021/07/14 01:57:36;;;;;;;;;;;12.80;99.90;;;;;;4998282;28;19909;-91
2021/07/14 02:00:04;;;;;;;;;;;12.80;99.90;;;;;;4998399;28;19916;-93
2021/07/14 02:02:34;;;;;;;;;;;12.90;99.90;;;;;;4998375;28;19932;-93
2021/07/14 02:04:59;;;;;;;;;;;12.90;99.90;;;;;;4997908;28;19917;-92
2021/07/14 02:07:26;;;;;;;;;;;12.90;99.90;;;;;;4997794;28;19967;-92
2021/07/14 02:09:52;;;;;;;;;;;12.90;99.90;;;;;;4997819;28;19909;-92
2021/07/14 02:12:19;;;;;;;;;;;13.00;99.90;;;;;;4998396;28;19909;-92
2021/07/14 02:14:47;;;;;;;;;;;13.00;99.90;;;;;;4998336;28;19932;-93
2021/07/14 02:17:14;;;;;;;;;;;13.00;99.90;;;;;;4998378;28;19910;-93
2021/07/14 02:19:41;;;;;;;;;;;13.00;99.90;;;;;;4998116;28;19909;-93
2021/07/14 02:22:07;;;;;;;;;;;13.00;99.90;;;;;;4997991;28;20011;-93
2021/07/14 02:24:34;;;;;;;;;;;13.00;99.90;;;;;;4998201;28;20002;-92
2021/07/14 02:27:05;;;;;;;;;;;13.10;99.90;;;;;;4998058;28;20319;-93
2021/07/14 02:29:32;;;;;;;;;;;13.10;99.90;;;;;;4997636;28;19910;-93
2021/07/14 02:31:58;;;;;;;;;;;13.10;99.90;;;;;;4997823;28;20355;-93
2021/07/14 02:34:23;;;;;;;;;;;13.10;99.90;;;;;;4998142;28;19949;-93
2021/07/14 02:36:50;;;;;;;;;;;13.10;99.90;;;;;;4998368;28;19917;-93
2021/07/14 02:39:16;;;;;;;;;;;13.10;99.90;;;;;;4997754;28;19910;-93
2021/07/14 02:41:46;;;;;;;;;;;13.10;99.90;;;;;;4997858;28;19916;-93
2021/07/14 02:44:13;;;;;;;;;;;13.10;99.90;;;;;;4997957;28;20331;-93
2021/07/14 02:46:41;;;;;;;;;;;13.10;99.90;;;;;;4997999;28;19924;-91
2021/07/14 02:49:08;;;;;;;;;;;13.00;99.90;;;;;;4997747;28;19995;-92
2021/07/14 02:51:34;;;;;;;;;;;13.00;99.90;;;;;;4997423;28;19935;-92
2021/07/14 02:54:02;;;;;;;;;;;13.00;99.90;;;;;;4997525;28;19909;-92
2021/07/14 02:56:29;;;;;;;;;;;13.00;99.90;;;;;;4997261;28;20328;-92
2021/07/14 02:58:57;;;;;;;;;;;13.00;99.90;;;;;;4997129;28;19969;-92
2021/07/14 03:01:24;;;;;;;;;;;12.90;99.90;;;;;;4997257;28;19909;-93
2021/07/14 03:03:50;;;;;;;;;;;12.90;99.90;;;;;;4996981;28;19914;-93
2021/07/14 03:06:16;;;;;;;;;;;12.90;99.90;;;;;;4997326;28;19917;-93
2021/07/14 03:08:44;;;;;;;;;;;12.90;99.90;;;;;;4997077;28;19909;-92
2021/07/14 03:11:10;;;;;;;;;;;12.80;99.90;;;;;;4997069;28;19910;-93
2021/07/14 03:13:36;;;;;;;;;;;12.80;99.90;;;;;;4997037;28;20108;-93
2021/07/14 03:16:03;;;;;;;;;;;12.80;99.90;;;;;;4996695;28;20373;-92
2021/07/14 03:18:29;;;;;;;;;;;12.80;99.90;;;;;;4996760;28;19910;-92
2021/07/14 03:20:55;;;;;;;;;;;12.80;99.90;;;;;;4996818;28;20320;-92
2021/07/14 03:23:21;;;;;;;;;;;12.80;99.90;;;;;;4996723;28;19955;-92
2021/07/14 03:25:51;;;;;;;;;;;12.80;99.90;;;;;;4996788;28;19916;-92
2021/07/14 03:28:17;;;;;;;;;;;12.80;99.90;;;;;;4996384;28;19963;-92
2021/07/14 03:30:43;;;;;;;;;;;12.80;99.90;;;;;;4996798;28;19953;-92
2021/07/14 03:33:08;;;;;;;;;;;12.80;99.90;;;;;;4996524;28;19921;-93
2021/07/14 03:35:35;;;;;;;;;;;12.90;99.90;;;;;;4996560;28;19925;-92
2021/07/14 03:38:03;;;;;;;;;;;12.90;99.90;;;;;;4996423;28;19925;-92
2021/07/14 03:40:30;;;;;;;;;;;12.90;99.90;;;;;;4996614;28;20303;-93
2021/07/14 03:42:56;;;;;;;;;;;12.90;99.90;;;;;;4996560;28;19909;-93
2021/07/14 03:45:22;;;;;;;;;;;13.00;99.90;;;;;;4996585;28;19916;-92
2021/07/14 03:47:47;;;;;;;;;;;13.00;99.90;;;;;;4996422;28;19981;-92
2021/07/14 03:50:13;;;;;;;;;;;13.00;99.90;;;;;;4996377;28;20012;-92
2021/07/14 03:52:39;;;;;;;;;;;13.00;99.90;;;;;;4996336;28;19936;-92
2021/07/14 03:55:05;;;;;;;;;;;13.10;99.90;;;;;;4996310;28;19909;-92
2021/07/14 03:57:31;;;;;;;;;;;13.10;99.90;;;;;;4996149;28;19910;-92
2021/07/14 03:59:57;;;;;;;;;;;13.10;99.90;;;;;;4996145;28;20011;-93
2021/07/14 04:02:24;;;;;;;;;;;13.10;99.90;;;;;;4996112;28;19917;-92
2021/07/14 04:04:49;;;;;;;;;;;13.20;99.90;;;;;;4996031;28;20124;-93
2021/07/14 04:07:16;;;;;;;;;;;13.20;99.90;;;;;;4996153;28;20000;-92
2021/07/14 04:09:43;;;;;;;;;;;13.30;99.90;;;;;;4995823;28;20356;-92
2021/07/14 04:12:08;;;;;;;;;;;13.30;99.90;;;;;;4995886;28;19967;-92
2021/07/14 04:14:34;;;;;;;;;;;13.30;99.90;;;;;;4995901;28;19988;-92
2021/07/14 04:16:59;;;;;;;;;;;13.30;99.90;;;;;;4995928;28;19910;-92
2021/07/14 04:19:25;;;;;;;;;;;13.30;99.90;;;;;;4995907;28;19936;-92
2021/07/14 04:21:51;;;;;;;;;;;13.30;99.90;;;;;;4995948;28;19996;-93
2021/07/14 04:24:17;;;;;;;;;;;13.40;99.90;;;;;;4995947;28;20362;-92
2021/07/14 04:26:42;;;;;;;;;;;13.40;99.90;;;;;;4995174;28;19920;-92
2021/07/14 04:29:08;;;;;;;;;;;13.50;99.90;;;;;;4995514;28;20403;-91
2021/07/14 04:31:34;;;;;;;;;;;13.40;99.90;;;;;;4995861;28;19983;-92
2021/07/14 04:34:00;;;;;;;;;;;13.40;99.90;;;;;;4995775;28;20369;-91
2021/07/14 04:36:26;;;;;;;;;;;13.40;99.90;;;;;;4995601;28;19910;-92
2021/07/14 04:39:00;;;;;;;;;;;13.40;99.90;;;;;;4995447;28;19909;-92
2021/07/14 04:41:27;;;;;;;;;;;13.30;99.90;;;;;;4995983;28;19913;-92
2021/07/14 04:43:52;;;;;;;;;;;13.40;99.90;;;;;;4995741;28;19909;-92
2021/07/14 04:46:18;;;;;;;;;;;13.30;99.90;;;;;;4995569;28;20009;-92
2021/07/14 04:48:43;;;;;;;;;;;13.40;99.90;;;;;;4995581;28;19909;-92
2021/07/14 04:51:09;;;;;;;;;;;13.40;99.90;;;;;;4995412;28;19953;-92
2021/07/14 04:53:34;;;;;;;;;;;13.40;99.90;;;;;;4995482;28;19910;-92
2021/07/14 04:59:03;;;;;;;;;;;13.40;99.90;;;;;;5013164;28;19920;-91
2021/07/14 05:01:30;;;;;;;;;;;13.50;99.90;;;;;;4995491;28;19913;-91
2021/07/14 05:03:56;;;;;;;;;;;13.50;99.90;;;;;;4995441;28;19910;-93
2021/07/14 05:06:21;;;;;;;;;;;13.50;99.90;;;;;;4995413;28;20032;-92
2021/07/14 05:11:50;;;;;;;;;;;13.50;99.90;;;;;;5013274;28;20012;-90
2021/07/14 05:14:16;;;;;;;;;;;13.50;99.90;;;;;;4997690;28;19909;-90
2021/07/14 05:16:41;;;;;;;;;;;13.50;99.90;;;;;;4996604;28;19933;-91
2021/07/14 05:19:08;;;;;;;;;;;13.60;99.90;;;;;;4997762;28;19917;-90
2021/07/14 05:21:33;;;;;;;;;;;13.60;99.90;;;;;;4996663;28;19916;-90
2021/07/14 05:23:59;;;;;;;;;;;13.60;99.90;;;;;;4996609;28;19953;-90
2021/07/14 05:26:25;;;;;;;;;;;13.70;99.90;;;;;;5013522;28;20345;-90
2021/07/14 05:28:50;;;;;;;;;;;13.80;99.90;;;;;;4996524;28;19916;-90
2021/07/14 05:31:16;;;;;;;;;;;13.80;99.90;;;;;;4996227;28;20324;-90
2021/07/14 05:33:42;;;;;;;;;;;13.90;99.90;;;;;;5000115;28;19910;-91
2021/07/14 05:36:08;;;;;;;;;;;13.80;99.90;;;;;;5014961;28;20394;-91
2021/07/14 05:38:34;;;;;;;;;;;13.90;99.90;;;;;;4998073;28;19955;-91
2021/07/14 05:40:59;;;;;;;;;;;14.00;99.90;;;;;;5000880;28;20276;-91
2021/07/14 05:43:25;;;;;;;;;;;14.00;99.90;;;;;;4999861;28;19910;-90
2021/07/14 05:45:50;;;;;;;;;;;14.00;99.90;;;;;;4999541;28;19917;-91
2021/07/14 05:48:16;;;;;;;;;;;14.10;99.90;;;;;;4999253;28;19913;-90
2021/07/14 05:50:42;;;;;;;;;;;14.20;99.90;;;;;;4999575;28;19910;-91
2021/07/14 05:53:07;;;;;;;;;;;14.20;99.90;;;;;;4999488;28;19953;-90
2021/07/14 05:55:33;;;;;;;;;;;14.20;99.90;;;;;;4999821;28;20292;-91
2021/07/14 05:57:59;;;;;;;;;;;14.20;99.90;;;;;;4999829;28;19914;-91
2021/07/14 06:00:26;;;;;;;;;;;14.20;99.90;;;;;;5000208;28;19917;-91
2021/07/14 06:02:53;;;;;;;;;;;14.20;99.90;;;;;;4999286;28;19953;-91
2021/07/14 06:05:19;;;;;;;;;;;14.40;99.90;;;;;;4999284;28;19920;-91
2021/07/14 06:07:50;;;;;;;;;;;14.50;99.90;;;;;;4998908;28;19917;-90
2021/07/14 06:10:23;;;;;;;;;;;14.60;99.90;;;;;;4999251;28;20310;-90
2021/07/14 06:12:55;;;;;;;;;;;14.60;99.90;;;;;;4999203;28;19968;-90
2021/07/14 06:15:21;;;;;;;;;;;14.70;99.90;;;;;;4999047;28;20352;-87
2021/07/14 06:17:46;;;;;;;;;;;14.80;99.90;;;;;;4997005;28;19910;-87
2021/07/14 06:20:12;;;;;;;;;;;14.80;99.90;;;;;;5014324;28;21480;-88
2021/07/14 06:22:40;;;;;;;;;;;14.80;99.90;;;;;;5013254;28;19910;-87
2021/07/14 06:25:11;;;;;;;;;;;14.80;99.90;;;;;;5013723;28;20384;-87
2021/07/14 06:27:38;;;;;;;;;;;14.80;99.90;;;;;;5013908;28;19913;-89
2021/07/14 06:30:07;;;;;;;;;;;14.90;99.90;;;;;;5013845;28;19991;-89
2021/07/14 06:32:33;;;;;;;;;;;15.00;99.90;;;;;;5014629;28;19917;-89
2021/07/14 06:35:01;;;;;;;;;;;15.00;99.90;;;;;;5014904;28;19913;-89
2021/07/14 06:37:27;;;;;;;;;;;15.00;99.90;;;;;;5001902;28;20421;-87
2021/07/14 06:39:55;;;;;;;;;;;15.00;99.90;;;;;;5014307;28;19959;-89
2021/07/14 06:42:22;;;;;;;;;;;15.00;99.90;;;;;;4996584;28;21430;-88
2021/07/14 06:44:48;;;;;;;;;;;15.00;99.90;;;;;;4997342;28;19951;-90
2021/07/14 06:47:14;;;;;;;;;;;15.00;99.90;;;;;;4993701;28;19913;-90
2021/07/14 06:49:39;;;;;;;;;;;14.90;99.90;;;;;;4995632;28;20368;-90
2021/07/14 06:52:05;;;;;;;;;;;14.90;99.90;;;;;;4998055;28;19913;-89
2021/07/14 06:54:30;;;;;;;;;;;15.00;99.90;;;;;;5005984;28;19956;-89
2021/07/14 06:56:56;;;;;;;;;;;15.00;99.90;;;;;;5003110;28;19916;-88
2021/07/14 06:59:21;;;;;;;;;;;15.10;99.90;;;;;;4995875;28;19910;-88
2021/07/14 07:01:47;;;;;;;;;;;15.10;99.90;;;;;;4999327;28;19917;-86
2021/07/14 07:04:13;;;;;;;;;;;15.20;99.90;;;;;;4996088;28;19964;-87
2021/07/14 07:06:38;;;;;;;;;;;15.20;99.90;;;;;;5007899;28;19920;-87
2021/07/14 07:09:05;;;;;;;;;;;15.20;99.90;;;;;;4998608;28;19910;-88
2021/07/14 07:11:34;;;;;;;;;;;15.20;99.90;;;;;;4996308;28;19925;-88
2021/07/14 07:14:00;;;;;;;;;;;15.30;99.90;;;;;;4995906;28;19910;-88
2021/07/14 07:16:25;;;;;;;;;;;15.30;99.90;;;;;;4997706;28;19916;-88
2021/07/14 07:18:50;;;;;;;;;;;15.40;99.90;;;;;;5003502;28;19910;-87
2021/07/14 07:21:16;;;;;;;;;;;15.40;99.90;;;;;;5013191;28;19909;-88
2021/07/14 07:23:41;;;;;;;;;;;15.50;99.90;;;;;;5013350;28;19910;-87
2021/07/14 07:26:07;;;;;;;;;;;15.60;99.90;;;;;;4997983;28;19909;-88
2021/07/14 07:28:36;;;;;;;;;;;15.60;99.90;;;;;;4995730;28;19913;-88
2021/07/14 07:31:04;;;;;;;;;;;15.70;99.90;;;;;;5013361;28;20434;-87
2021/07/14 07:33:30;;;;;;;;;;;15.70;99.90;;;;;;4999010;28;19991;-88
2021/07/14 07:35:55;;;;;;;;;;;15.70;99.90;;;;;;4995861;28;20372;-89
2021/07/14 07:38:22;;;;;;;;;;;15.80;99.90;;;;;;5012675;28;19918;-88
2021/07/14 07:40:51;;;;;;;;;;;15.90;99.90;;;;;;5012532;28;19913;-88
2021/07/14 07:43:24;;;;;;;;;;;16.00;99.90;;;;;;5012691;28;19928;-87
2021/07/14 07:45:50;;;;;;;;;;;16.10;99.90;;;;;;5012019;28;19924;-88
2021/07/14 07:48:18;;;;;;;;;;;16.20;99.90;;;;;;4996898;28;19913;-88
2021/07/14 07:50:43;;;;;;;;;;;16.20;99.90;;;;;;5005604;28;19933;-89
2021/07/14 07:53:09;;;;;;;;;;;16.30;99.90;;;;;;5009328;28;20376;-86
2021/07/14 07:55:34;;;;;;;;;;;16.40;99.90;;;;;;4994672;28;19916;-86
2021/07/14 07:58:00;;;;;;;;;;;16.40;99.90;;;;;;4997914;28;20356;-87
2021/07/14 08:00:25;;;;;;;;;;;16.50;99.90;;;;;;5002121;28;19917;-86
2021/07/14 08:02:52;;;;;;;;;;;16.50;99.90;;;;;;5011500;28;19953;-88
2021/07/14 08:05:22;;;;;;;;;;;16.50;99.90;;;;;;5007254;28;20008;-89
2021/07/14 08:07:48;;;;;;;;;;;16.60;99.90;;;;;;5010120;28;20348;-89
2021/07/14 08:10:16;;;;;;;;;;;16.60;99.90;;;;;;5013096;28;20287;-87
2021/07/14 08:12:42;;;;;;;;;;;16.70;99.90;;;;;;4995420;28;20279;-88
2021/07/14 08:15:08;;;;;;;;;;;16.70;99.90;;;;;;4995557;28;19952;-86
2021/07/14 08:17:33;;;;;;;;;;;16.70;99.90;;;;;;4995212;28;19981;-88
2021/07/14 08:19:59;;;;;;;;;;;16.70;99.90;;;;;;5012793;28;19948;-88
2021/07/14 08:22:24;;;;;;;;;;;16.70;99.90;;;;;;5010652;28;19932;-88
2021/07/14 08:24:50;;;;;;;;;;;16.70;99.90;;;;;;5011465;28;19975;-87
2021/07/14 08:27:15;;;;;;;;;;;16.80;99.90;;;;;;4992999;28;20456;-89
2021/07/14 08:29:41;;;;;;;;;;;16.80;99.90;;;;;;4996832;28;19917;-88
2021/07/14 08:32:06;;;;;;;;;;;16.90;99.90;;;;;;5011944;28;19917;-87
2021/07/14 08:34:35;;;;;;;;;;;16.70;99.90;;;;;;5012805;28;20388;-89
2021/07/14 08:37:02;;;;;;;;;;;16.70;99.90;;;;;;5011201;28;19917;-87
2021/07/14 08:39:27;;;;;;;;;;;16.70;99.90;;;;;;4997768;28;20307;-88
2021/07/14 08:41:53;;;;;;;;;;;16.80;99.90;;;;;;5002491;28;20499;-88
2021/07/14 08:44:20;;;;;;;;;;;16.80;99.90;;;;;;4996678;28;19929;-88
2021/07/14 08:46:46;;;;;;;;;;;16.90;99.90;;;;;;4993156;28;20022;-89
2021/07/14 08:49:13;;;;;;;;;;;16.90;99.90;;;;;;5011897;28;20031;-88
2021/07/14 08:51:38;;;;;;;;;;;17.00;99.90;;;;;;5005282;28;19910;-88
2021/07/14 08:54:04;;;;;;;;;;;17.10;99.90;;;;;;4995712;28;20402;-86
2021/07/14 08:56:33;;;;;;;;;;;17.10;99.90;;;;;;4991571;28;19960;-87
2021/07/14 08:58:59;;;;;;;;;;;17.10;99.90;;;;;;4995093;28;19913;-87
2021/07/14 09:01:24;;;;;;;;;;;17.10;99.90;;;;;;4993877;28;19960;-87
2021/07/14 09:03:50;;;;;;;;;;;17.10;99.90;;;;;;4995071;28;19932;-87
2021/07/14 09:06:15;;;;;;;;;;;17.00;99.90;;;;;;4993657;28;19913;-87
2021/07/14 09:08:41;;;;;;;;;;;17.00;99.90;;;;;;4993831;28;20000;-89
2021/07/14 09:11:06;;;;;;;;;;;16.90;99.90;;;;;;4998695;28;19910;-88
2021/07/14 09:13:37;;;;;;;;;;;17.00;99.90;;;;;;4995170;28;19910;-87
2021/07/14 09:16:03;;;;;;;;;;;17.00;99.90;;;;;;5014342;28;19983;-88
2021/07/14 09:18:29;;;;;;;;;;;17.00;99.90;;;;;;4996886;28;19909;-87
2021/07/14 09:20:55;;;;;;;;;;;17.00;99.90;;;;;;4997836;28;20339;-86
2021/07/14 09:23:28;;;;;;;;;;;17.00;99.90;;;;;;5014111;28;19910;-87
2021/07/14 09:25:57;;;;;;;;;;;17.00;99.90;;;;;;4998966;28;20013;-87
2021/07/14 09:28:33;;;;;;;;;;;17.10;99.90;;;;;;5015298;28;19913;-89
2021/07/14 09:30:59;;;;;;;;;;;17.30;99.90;;;;;;4998181;28;19918;-87
2021/07/14 09:33:25;;;;;;;;;;;17.40;99.90;;;;;;4998100;28;19917;-88
2021/07/14 09:35:52;;;;;;;;;;;17.50;99.90;;;;;;4997492;28;19917;-88
2021/07/14 09:38:22;;;;;;;;;;;17.60;99.90;;;;;;5007976;28;20004;-89
2021/07/14 09:40:49;;;;;;;;;;;17.70;99.90;;;;;;5015222;28;19969;-88
2021/07/14 09:43:16;;;;;;;;;;;17.80;99.90;;;;;;4998091;28;19909;-88
2021/07/14 09:45:44;;;;;;;;;;;17.90;99.90;;;;;;5009735;28;19941;-88
2021/07/14 09:48:11;;;;;;;;;;;17.80;99.90;;;;;;5013090;28;19913;-87
2021/07/14 09:50:41;;;;;;;;;;;17.80;99.90;;;;;;4998199;28;19920;-87
2021/07/14 09:53:08;;;;;;;;;;;17.90;99.90;;;;;;4998143;28;19910;-87
2021/07/14 09:55:34;;;;;;;;;;;17.90;99.90;;;;;;4997840;28;19937;-88
2021/07/14 09:58:13;;;;;;;;;;;17.90;99.90;;;;;;4997644;28;19965;-89
2021/07/14 10:00:46;;;;;;;;;;;18.00;99.90;;;;;;5015245;28;19917;-88
2021/07/14 10:03:32;;;;;;;;;;;18.10;99.90;;;;;;4982710;28;19964;-87
2021/07/14 10:06:02;;;;;;;;;;;18.20;99.90;;;;;;5014464;28;19909;-88
2021/07/14 10:08:28;;;;;;;;;;;18.50;99.90;;;;;;5012878;28;19995;-89
2021/07/14 10:11:06;;;;;;;;;;;18.70;99.90;;;;;;4999580;28;19913;-87
2021/07/14 10:13:32;;;;;;;;;;;18.90;99.90;;;;;;5015331;28;20386;-88
2021/07/14 10:16:02;;;;;;;;;;;19.10;99.90;;;;;;4996079;28;19909;-88
2021/07/14 10:18:27;;;;;;;;;;;19.30;99.90;;;;;;4999256;28;19956;-88
2021/07/14 10:20:53;;;;;;;;;;;19.50;99.90;;;;;;5014437;28;19916;-88
2021/07/14 10:23:18;;;;;;;;;;;19.80;99.90;;;;;;5013913;28;19913;-87
2021/07/14 10:25:44;;;;;;;;;;;20.00;99.90;;;;;;4997365;28;19936;-88
2021/07/14 10:28:12;;;;;;;;;;;19.90;99.90;;;;;;5014180;28;19913;-88
2021/07/14 10:30:39;;;;;;;;;;;20.00;99.90;;;;;;5013306;28;19948;-87
2021/07/14 10:33:05;;;;;;;;;;;20.10;99.90;;;;;;5012812;28;19918;-88
2021/07/14 10:35:35;;;;;;;;;;;20.40;99.90;;;;;;4991134;28;19917;-88
2021/07/14 10:38:05;;;;;;;;;;;20.70;99.90;;;;;;4996697;28;20003;-86
2021/07/14 10:40:31;;;;;;;;;;;20.80;99.90;;;;;;4995739;28;19910;-87
2021/07/14 10:42:57;;;;;;;;;;;21.10;99.90;;;;;;5012961;28;20365;-87
2021/07/14 10:45:22;;;;;;;;;;;21.40;99.90;;;;;;4997042;28;19917;-89
2021/07/14 10:47:49;;;;;;;;;;;21.80;99.90;;;;;;5012373;28;19914;-88
2021/07/14 10:50:16;;;;;;;;;;;22.00;99.90;;;;;;4999606;28;19917;-88
2021/07/14 10:52:41;;;;;;;;;;;22.20;99.90;;;;;;5012868;28;20007;-87
2021/07/14 10:55:08;;;;;;;;;;;22.50;99.90;;;;;;4996100;28;20384;-88
2021/07/14 10:57:35;;;;;;;;;;;22.90;99.90;;;;;;4996098;28;19910;-88
2021/07/14 11:00:01;;;;;;;;;;;23.10;99.90;;;;;;5013924;28;19916;-87
2021/07/14 11:02:37;;;;;;;;;;;23.10;99.90;;;;;;4995602;28;19910;-88
2021/07/14 11:05:03;;;;;;;;;;;23.00;99.90;;;;;;4997890;28;19920;-89
2021/07/14 11:07:36;;;;;;;;;;;23.00;99.90;;;;;;4997248;28;20296;-88
2021/07/14 11:10:20;;;;;;;;;;;23.00;99.90;;;;;;4995433;28;19909;-89
2021/07/14 11:12:46;;;;;;;;;;;23.10;99.90;;;;;;4996127;28;19910;-88
2021/07/14 11:15:12;;;;;;;;;;;23.10;99.90;;;;;;4994562;28;20380;-88
2021/07/14 11:17:38;;;;;;;;;;;23.10;99.90;;;;;;4994911;28;20312;-88
2021/07/14 11:20:22;;;;;;;;;;;23.10;99.90;;;;;;4999911;28;19960;-88
2021/07/14 11:22:52;;;;;;;;;;;23.20;99.90;;;;;;4995600;28;20008;-89
2021/07/14 11:25:21;;;;;;;;;;;23.30;99.90;;;;;;4998614;28;19936;-88
2021/07/14 11:27:48;;;;;;;;;;;23.40;99.90;;;;;;5012494;28;19920;-89
2021/07/14 11:30:13;;;;;;;;;;;23.70;99.90;;;;;;4994324;28;20068;-89
2021/07/14 11:32:42;;;;;;;;;;;23.90;99.90;;;;;;4995906;28;20012;-89
2021/07/14 11:35:13;;;;;;;;;;;24.40;99.90;;;;;;4996286;28;19932;-88
2021/07/14 11:37:44;;;;;;;;;;;24.90;99.90;;;;;;5012998;28;19952;-88
2021/07/14 11:40:19;;;;;;;;;;;25.10;99.90;;;;;;4976683;28;20013;-89
2021/07/14 11:42:48;;;;;;;;;;;25.30;99.90;;;;;;4993842;28;19920;-88
2021/07/14 11:45:14;;;;;;;;;;;25.30;99.90;;;;;;4976489;28;20364;-89
2021/07/14 11:47:40;;;;;;;;;;;25.20;99.90;;;;;;4992577;28;20426;-89
2021/07/14 11:50:06;;;;;;;;;;;25.00;99.90;;;;;;4995778;28;19909;-89
2021/07/14 11:52:41;;;;;;;;;;;24.90;99.90;;;;;;4996435;28;19932;-89
2021/07/14 11:55:22;;;;;;;;;;;24.70;99.90;;;;;;5013500;28;19916;-87
2021/07/14 11:57:48;;;;;;;;;;;24.40;99.90;;;;;;4995498;28;20266;-89
2021/07/14 12:00:14;;;;;;;;;;;24.30;99.90;;;;;;4995132;28;19917;-89
2021/07/14 12:02:39;;;;;;;;;;;24.20;99.90;;;;;;4995515;28;19920;-89
2021/07/14 12:05:06;;;;;;;;;;;24.00;99.90;;;;;;5013604;28;19972;-89
2021/07/14 12:07:40;;;;;;;;;;;24.00;99.90;;;;;;5000880;28;19914;-88
2021/07/14 12:10:14;;;;;;;;;;;23.90;99.90;;;;;;5000655;28;19917;-89
2021/07/14 12:12:44;;;;;;;;;;;24.00;99.90;;;;;;4997971;28;19921;-87
2021/07/14 12:15:10;;;;;;;;;;;24.00;99.90;;;;;;4993632;28;19913;-89
2021/07/14 12:17:35;;;;;;;;;;;24.00;99.90;;;;;;5010269;28;20470;-88
2021/07/14 12:20:01;;;;;;;;;;;23.90;99.90;;;;;;4993138;28;19914;-87
2021/07/14 12:22:28;;;;;;;;;;;23.90;99.90;;;;;;5012677;28;19941;-88
2021/07/14 12:25:02;;;;;;;;;;;23.80;99.90;;;;;;4994964;28;20679;-88
2021/07/14 12:27:33;;;;;;;;;;;23.80;99.90;;;;;;5012657;28;19913;-87
2021/07/14 12:30:01;;;;;;;;;;;23.90;99.90;;;;;;4995476;28;19914;-88
2021/07/14 12:32:40;;;;;;;;;;;24.00;99.90;;;;;;5002763;28;19918;-88
2021/07/14 12:35:11;;;;;;;;;;;24.10;99.90;;;;;;5006850;28;19910;-88
2021/07/14 12:37:41;;;;;;;;;;;23.90;99.30;;;;;;5005986;28;20287;-90
2021/07/14 12:40:07;;;;;;;;;;;23.90;99.90;;;;;;4995376;28;19940;-89
2021/07/14 12:42:33;;;;;;;;;;;23.90;99.90;;;;;;5008154;28;19910;-88
2021/07/14 12:44:58;;;;;;;;;;;24.00;99.90;;;;;;5000037;28;19916;-88
2021/07/14 12:47:26;;;;;;;;;;;24.00;99.90;;;;;;5010161;28;19913;-88
2021/07/14 12:49:52;;;;;;;;;;;24.20;99.90;;;;;;5016514;28;20319;-88
2021/07/14 12:52:19;;;;;;;;;;;24.30;99.90;;;;;;4999370;28;19910;-89
2021/07/14 12:54:52;;;;;;;;;;;24.40;99.90;;;;;;5015358;28;19917;-89
2021/07/14 12:57:17;;;;;;;;;;;24.30;99.90;;;;;;4996826;28;19960;-88
2021/07/14 12:59:52;;;;;;;;;;;24.50;99.90;;;;;;5003998;28;19921;-89
2021/07/14 13:02:18;;;;;;;;;;;24.50;99.90;;;;;;4997871;28;19909;-88
2021/07/14 13:04:45;;;;;;;;;;;24.50;98.70;;;;;;4998551;28;19917;-87
2021/07/14 13:07:11;;;;;;;;;;;24.30;99.50;;;;;;5001595;28;19917;-89
2021/07/14 13:09:36;;;;;;;;;;;24.20;99.80;;;;;;4999089;28;20055;-88
2021/07/14 13:12:02;;;;;;;;;;;24.20;99.90;;;;;;4998698;28;19916;-87
2021/07/14 13:14:28;;;;;;;;;;;24.10;99.90;;;;;;5015172;28;20392;-87
2021/07/14 13:16:54;;;;;;;;;;;24.10;99.90;;;;;;5015523;28;19996;-89
2021/07/14 13:19:20;;;;;;;;;;;24.20;99.10;;;;;;5004645;28;20002;-90
2021/07/14 13:21:56;;;;;;;;;;;24.10;99.80;;;;;;4999076;28;19909;-89
2021/07/14 13:24:27;;;;;;;;;;;24.10;99.00;;;;;;5003511;28;19914;-89
2021/07/14 13:27:01;;;;;;;;;;;24.00;99.30;;;;;;4994732;28;19918;-88
2021/07/14 13:29:28;;;;;;;;;;;24.00;99.70;;;;;;4995862;28;19910;-89
2021/07/14 13:32:13;;;;;;;;;;;24.00;98.40;;;;;;4997804;28;19979;-89
2021/07/14 13:34:42;;;;;;;;;;;24.20;98.70;;;;;;5010134;28;19921;-90
2021/07/14 13:37:08;;;;;;;;;;;24.30;99.10;;;;;;5012165;28;19925;-89
2021/07/14 13:39:38;;;;;;;;;;;24.50;99.10;;;;;;5014411;28;19910;-89
2021/07/14 13:42:17;;;;;;;;;;;24.80;99.90;;;;;;4997346;28;19996;-87
2021/07/14 13:44:43;;;;;;;;;;;25.00;98.00;;;;;;4996195;28;19925;-91
2021/07/14 13:47:10;;;;;;;;;;;25.10;98.30;;;;;;4991760;28;19913;-87
2021/07/14 13:49:36;;;;;;;;;;;25.50;98.20;;;;;;4998569;28;19909;-88
2021/07/14 13:52:02;;;;;;;;;;;25.90;97.90;;;;;;4999109;28;19951;-89
2021/07/14 13:54:28;;;;;;;;;;;26.00;96.50;;;;;;4999668;28;20339;-89
2021/07/14 13:57:02;;;;;;;;;;;26.00;96.50;;;;;;4997978;28;19909;-89
2021/07/14 13:59:37;;;;;;;;;;;26.00;96.30;;;;;;5015712;28;19997;-89
2021/07/14 14:02:09;;;;;;;;;;;26.10;96.40;;;;;;4997292;28;19960;-89
2021/07/14 14:04:41;;;;;;;;;;;26.30;97.40;;;;;;4999741;28;20004;-89
2021/07/14 14:07:07;;;;;;;;;;;26.40;97.30;;;;;;5003714;28;20345;-91
2021/07/14 14:09:32;;;;;;;;;;;26.40;95.50;;;;;;4998821;28;20427;-89
2021/07/14 14:11:59;;;;;;;;;;;26.20;95.70;;;;;;4998086;28;20008;-89
2021/07/14 14:14:25;;;;;;;;;;;25.70;96.30;;;;;;4998514;28;20000;-88
2021/07/14 14:16:51;;;;;;;;;;;25.10;94.50;;;;;;5015332;28;19945;-88
2021/07/14 14:19:18;;;;;;;;;;;24.50;97.60;;;;;;4997873;28;19909;-88
2021/07/14 14:21:57;;;;;;;;;;;24.20;97.40;;;;;;4997914;28;19909;-88
2021/07/14 14:24:22;;;;;;;;;;;24.00;97.70;;;;;;4997650;28;20323;-90
2021/07/14 14:26:51;;;;;;;;;;;23.70;97.10;;;;;;5013980;28;20036;-88
2021/07/14 14:29:18;;;;;;;;;;;23.60;97.30;;;;;;4997508;28;19916;-90
2021/07/14 14:31:46;;;;;;;;;;;23.50;98.10;;;;;;4998417;28;20009;-90